RYR6VW LEPA-EGPK
Flight info
| Callsign | RYR6VW |
|---|---|
| Flight time | 2h 36m |
| Altitude | 36000 |
| Route | DRAGO DCT PAPOS DCT UMURE N863 GIROM DCT GONUP DCT MANAK DCT MUREL DCT NOZHU/N0445F370 DCT SHIRI/N0444F360 DCT UNFIT DCT PENWU DCT NICXI DCT PEMOB DCT VATRY DCT ASKUP/N0441F370 DCT ROTEV DCT GOTNA/N0396F250 P600 BLACA |
| Aircraft | A320/M-SDE3FGHIRWY/LB1 |
Departure
| Time | 2026-05-07 07:38 |
|---|---|
| Airport | Palma de Mallorca Airport (LEPA) |
Arrival
| Time | 2026-05-07 10:14 |
|---|---|
| Airport | Glasgow Prestwick Airport (EGPK) |
| Time | Latitude | Longitude | Altitude | Speed | Heading |
|---|---|---|---|---|---|
| 2026-05-07 07:16 | 39.55334 | 2.73625 | 37 ft | 0 kts | 58° |
| 2026-05-07 07:25 | 39.55332 | 2.73621 | 38 ft | 3 kts | 58° |
| 2026-05-07 07:25 | 39.55319 | 2.73591 | 36 ft | 4 kts | 66° |
| 2026-05-07 07:25 | 39.55310 | 2.73558 | 36 ft | 4 kts | 85° |
| 2026-05-07 07:26 | 39.55314 | 2.73529 | 36 ft | 4 kts | 141° |
| 2026-05-07 07:26 | 39.55321 | 2.73522 | 37 ft | 0 kts | 149° |
| 2026-05-07 07:29 | 39.55319 | 2.73524 | 37 ft | 1 kts | 149° |
| 2026-05-07 07:29 | 39.55307 | 2.73533 | 35 ft | 3 kts | 149° |
| 2026-05-07 07:29 | 39.55287 | 2.73549 | 38 ft | 4 kts | 149° |
| 2026-05-07 07:30 | 39.55250 | 2.73578 | 38 ft | 8 kts | 149° |
| 2026-05-07 07:30 | 39.55194 | 2.73622 | 38 ft | 10 kts | 149° |
| 2026-05-07 07:30 | 39.55171 | 2.73672 | 38 ft | 7 kts | 69° |
| 2026-05-07 07:30 | 39.55177 | 2.73738 | 38 ft | 8 kts | 112° |
| 2026-05-07 07:31 | 39.55123 | 2.73785 | 38 ft | 11 kts | 150° |
| 2026-05-07 07:31 | 39.55053 | 2.73838 | 38 ft | 13 kts | 149° |
| 2026-05-07 07:31 | 39.54971 | 2.73903 | 38 ft | 15 kts | 148° |
| 2026-05-07 07:31 | 39.54877 | 2.73978 | 38 ft | 17 kts | 148° |
| 2026-05-07 07:32 | 39.54805 | 2.73977 | 38 ft | 11 kts | 231° |
| 2026-05-07 07:32 | 39.54754 | 2.73947 | 38 ft | 9 kts | 158° |
| 2026-05-07 07:32 | 39.54696 | 2.73930 | 38 ft | 10 kts | 234° |
| 2026-05-07 07:32 | 39.54649 | 2.73828 | 38 ft | 15 kts | 238° |
| 2026-05-07 07:33 | 39.54593 | 2.73711 | 38 ft | 16 kts | 238° |
| 2026-05-07 07:33 | 39.54532 | 2.73583 | 38 ft | 17 kts | 238° |
| 2026-05-07 07:33 | 39.54466 | 2.73443 | 38 ft | 19 kts | 239° |
| 2026-05-07 07:33 | 39.54395 | 2.73293 | 38 ft | 20 kts | 238° |
| 2026-05-07 07:34 | 39.54319 | 2.73132 | 38 ft | 22 kts | 238° |
| 2026-05-07 07:34 | 39.54241 | 2.72968 | 36 ft | 18 kts | 238° |
| 2026-05-07 07:34 | 39.54169 | 2.72923 | 38 ft | 12 kts | 139° |
| 2026-05-07 07:34 | 39.54153 | 2.72973 | 38 ft | 0 kts | 95° |
| 2026-05-07 07:35 | 39.54152 | 2.72980 | 38 ft | 3 kts | 95° |
| 2026-05-07 07:35 | 39.54150 | 2.73035 | 38 ft | 9 kts | 91° |
| 2026-05-07 07:35 | 39.54150 | 2.73130 | 38 ft | 11 kts | 89° |
| 2026-05-07 07:36 | 39.54137 | 2.73189 | 38 ft | 5 kts | 87° |
| 2026-05-07 07:36 | 39.54142 | 2.73202 | 38 ft | 0 kts | 60° |
| 2026-05-07 07:37 | 39.54143 | 2.73203 | 38 ft | 1 kts | 60° |
| 2026-05-07 07:37 | 39.54207 | 2.73349 | 38 ft | 50 kts | 59° |
| 2026-05-07 07:38 | 39.54498 | 2.73963 | 38 ft | 108 kts | 58° |
| 2026-05-07 07:38 | 39.54975 | 2.74975 | 44 ft | 153 kts | 59° |
| 2026-05-07 07:38 | 39.55509 | 2.76130 | 675 ft | 145 kts | 59° |
| 2026-05-07 07:38 | 39.56026 | 2.77263 | 1260 ft | 148 kts | 60° |
| 2026-05-07 07:39 | 39.56580 | 2.78464 | 1612 ft | 164 kts | 60° |
| 2026-05-07 07:39 | 39.57202 | 2.79792 | 1946 ft | 180 kts | 60° |
| 2026-05-07 07:39 | 39.57884 | 2.81237 | 2308 ft | 196 kts | 59° |
| 2026-05-07 07:39 | 39.58608 | 2.82778 | 2800 ft | 205 kts | 61° |
| 2026-05-07 07:40 | 39.59342 | 2.84375 | 3521 ft | 208 kts | 60° |
| 2026-05-07 07:40 | 39.60078 | 2.85989 | 4262 ft | 208 kts | 61° |
| 2026-05-07 07:40 | 39.60825 | 2.87627 | 4891 ft | 216 kts | 61° |
| 2026-05-07 07:40 | 39.61599 | 2.89304 | 5594 ft | 218 kts | 60° |
| 2026-05-07 07:41 | 39.62412 | 2.90969 | 6303 ft | 223 kts | 49° |
| 2026-05-07 07:41 | 39.63766 | 2.91978 | 6806 ft | 234 kts | 8° |
| 2026-05-07 07:41 | 39.65447 | 2.91827 | 7189 ft | 256 kts | 343° |
| 2026-05-07 07:41 | 39.67045 | 2.90651 | 7536 ft | 277 kts | 315° |
| 2026-05-07 07:42 | 39.68148 | 2.88540 | 8046 ft | 289 kts | 295° |
| 2026-05-07 07:42 | 39.68924 | 2.86120 | 8843 ft | 291 kts | 289° |
| 2026-05-07 07:42 | 39.69591 | 2.83631 | 9680 ft | 292 kts | 287° |
| 2026-05-07 07:42 | 39.70241 | 2.81113 | 10288 ft | 301 kts | 288° |
| 2026-05-07 07:43 | 39.70945 | 2.78449 | 10448 ft | 324 kts | 288° |
| 2026-05-07 07:43 | 39.71730 | 2.75609 | 10740 ft | 340 kts | 288° |
| 2026-05-07 07:43 | 39.72563 | 2.72718 | 11358 ft | 344 kts | 289° |
| 2026-05-07 07:43 | 39.73424 | 2.69809 | 12093 ft | 346 kts | 289° |
| 2026-05-07 07:44 | 39.74297 | 2.66892 | 12778 ft | 348 kts | 290° |
| 2026-05-07 07:44 | 39.75183 | 2.63942 | 13385 ft | 352 kts | 289° |
| 2026-05-07 07:44 | 39.76077 | 2.60960 | 13999 ft | 356 kts | 289° |
| 2026-05-07 07:44 | 39.76976 | 2.57950 | 14584 ft | 358 kts | 289° |
| 2026-05-07 07:45 | 39.77878 | 2.54922 | 15181 ft | 360 kts | 289° |
| 2026-05-07 07:45 | 39.78786 | 2.51873 | 15741 ft | 363 kts | 289° |
| 2026-05-07 07:45 | 39.79697 | 2.48795 | 16284 ft | 366 kts | 289° |
| 2026-05-07 07:45 | 39.80601 | 2.45734 | 16846 ft | 369 kts | 289° |
| 2026-05-07 07:46 | 39.81523 | 2.42608 | 17411 ft | 372 kts | 289° |
| 2026-05-07 07:46 | 39.82452 | 2.39455 | 17979 ft | 375 kts | 289° |
| 2026-05-07 07:46 | 39.83387 | 2.36284 | 18526 ft | 378 kts | 288° |
| 2026-05-07 07:46 | 39.84329 | 2.33086 | 19089 ft | 379 kts | 288° |
| 2026-05-07 07:47 | 39.85271 | 2.29878 | 19679 ft | 380 kts | 288° |
| 2026-05-07 07:47 | 39.86215 | 2.26662 | 20281 ft | 381 kts | 287° |
| 2026-05-07 07:47 | 39.87161 | 2.23436 | 20861 ft | 382 kts | 287° |
| 2026-05-07 07:47 | 39.88109 | 2.20204 | 21438 ft | 383 kts | 287° |
| 2026-05-07 07:48 | 39.89059 | 2.16965 | 21978 ft | 383 kts | 286° |
| 2026-05-07 07:48 | 39.90007 | 2.13718 | 22517 ft | 384 kts | 286° |
| 2026-05-07 07:48 | 39.90955 | 2.10465 | 23055 ft | 385 kts | 285° |
| 2026-05-07 07:48 | 39.91905 | 2.07204 | 23570 ft | 385 kts | 285° |
| 2026-05-07 07:49 | 39.92859 | 2.03936 | 23992 ft | 387 kts | 285° |
| 2026-05-07 07:49 | 39.93815 | 2.00652 | 24369 ft | 389 kts | 285° |
| 2026-05-07 07:49 | 39.94774 | 1.97352 | 24744 ft | 390 kts | 285° |
| 2026-05-07 07:49 | 39.95737 | 1.94033 | 25103 ft | 392 kts | 285° |
| 2026-05-07 07:50 | 39.96704 | 1.90695 | 25464 ft | 395 kts | 285° |
| 2026-05-07 07:50 | 39.97676 | 1.87333 | 25774 ft | 398 kts | 285° |
| 2026-05-07 07:50 | 39.98660 | 1.83949 | 26099 ft | 401 kts | 287° |
| 2026-05-07 07:50 | 39.99964 | 1.80687 | 26421 ft | 411 kts | 298° |
| 2026-05-07 07:51 | 40.01761 | 1.77791 | 26763 ft | 422 kts | 309° |
| 2026-05-07 07:51 | 40.04054 | 1.75323 | 27085 ft | 434 kts | 321° |
| 2026-05-07 07:51 | 40.06767 | 1.73486 | 27415 ft | 446 kts | 332° |
| 2026-05-07 07:51 | 40.09667 | 1.72016 | 27737 ft | 448 kts | 333° |
| 2026-05-07 07:52 | 40.12580 | 1.70530 | 28059 ft | 450 kts | 332° |
| 2026-05-07 07:52 | 40.15498 | 1.69032 | 28373 ft | 453 kts | 332° |
| 2026-05-07 07:52 | 40.18438 | 1.67523 | 28686 ft | 455 kts | 332° |
| 2026-05-07 07:52 | 40.21389 | 1.66006 | 29037 ft | 456 kts | 332° |
| 2026-05-07 07:53 | 40.23384 | 1.64981 | 29344 ft | 455 kts | 332° |
| 2026-05-07 07:53 | 40.26325 | 1.63468 | 29853 ft | 453 kts | 332° |
| 2026-05-07 07:53 | 40.29213 | 1.61980 | 30309 ft | 451 kts | 332° |
| 2026-05-07 07:53 | 40.32167 | 1.60453 | 30716 ft | 450 kts | 332° |
| 2026-05-07 07:54 | 40.35036 | 1.58968 | 31099 ft | 449 kts | 332° |
| 2026-05-07 07:54 | 40.37938 | 1.57466 | 31488 ft | 448 kts | 332° |
| 2026-05-07 07:54 | 40.40836 | 1.55967 | 31879 ft | 447 kts | 332° |
| 2026-05-07 07:54 | 40.43721 | 1.54472 | 32275 ft | 446 kts | 332° |
| 2026-05-07 07:55 | 40.46612 | 1.52972 | 32683 ft | 445 kts | 332° |
| 2026-05-07 07:55 | 40.49485 | 1.51480 | 33084 ft | 445 kts | 332° |
| 2026-05-07 07:55 | 40.52406 | 1.49962 | 33471 ft | 444 kts | 332° |
| 2026-05-07 07:55 | 40.55271 | 1.48473 | 33858 ft | 443 kts | 332° |
| 2026-05-07 07:56 | 40.58136 | 1.46978 | 34200 ft | 443 kts | 332° |
| 2026-05-07 07:56 | 40.60997 | 1.45484 | 34503 ft | 442 kts | 332° |
| 2026-05-07 07:56 | 40.63858 | 1.43994 | 34783 ft | 442 kts | 332° |
| 2026-05-07 07:56 | 40.66718 | 1.42510 | 35059 ft | 442 kts | 332° |
| 2026-05-07 07:57 | 40.69539 | 1.41045 | 35322 ft | 441 kts | 332° |
| 2026-05-07 07:57 | 40.72393 | 1.39553 | 35581 ft | 441 kts | 332° |
| 2026-05-07 07:57 | 40.75244 | 1.38057 | 35850 ft | 441 kts | 332° |
| 2026-05-07 07:57 | 40.78098 | 1.36556 | 35983 ft | 442 kts | 332° |
| 2026-05-07 07:58 | 40.80973 | 1.35042 | 36008 ft | 448 kts | 332° |
| 2026-05-07 07:58 | 40.86810 | 1.31968 | 36011 ft | 454 kts | 332° |
| 2026-05-07 07:59 | 40.92691 | 1.28885 | 36019 ft | 455 kts | 332° |
| 2026-05-07 07:59 | 40.98569 | 1.25793 | 36021 ft | 455 kts | 332° |
| 2026-05-07 08:00 | 41.04439 | 1.22691 | 36025 ft | 455 kts | 332° |
| 2026-05-07 08:00 | 41.10319 | 1.19580 | 36029 ft | 455 kts | 332° |
| 2026-05-07 08:01 | 41.16357 | 1.17070 | 36047 ft | 465 kts | 346° |
| 2026-05-07 08:01 | 41.22849 | 1.16305 | 36044 ft | 469 kts | 350° |
| 2026-05-07 08:02 | 41.29362 | 1.15633 | 36039 ft | 469 kts | 350° |
| 2026-05-07 08:02 | 41.35867 | 1.14934 | 36050 ft | 469 kts | 350° |
| 2026-05-07 08:03 | 41.42381 | 1.14234 | 36052 ft | 470 kts | 351° |
| 2026-05-07 08:03 | 41.48897 | 1.13551 | 36034 ft | 470 kts | 351° |
| 2026-05-07 08:04 | 41.55412 | 1.12872 | 36029 ft | 470 kts | 351° |
| 2026-05-07 08:04 | 41.61930 | 1.12189 | 36036 ft | 470 kts | 351° |
| 2026-05-07 08:05 | 41.68452 | 1.11502 | 36033 ft | 470 kts | 351° |
| 2026-05-07 08:05 | 41.74964 | 1.10807 | 36036 ft | 470 kts | 351° |
| 2026-05-07 08:06 | 41.81483 | 1.10108 | 36053 ft | 470 kts | 351° |
| 2026-05-07 08:06 | 41.87995 | 1.09413 | 36050 ft | 469 kts | 351° |
| 2026-05-07 08:07 | 41.94499 | 1.08714 | 36050 ft | 469 kts | 351° |
| 2026-05-07 08:07 | 42.00997 | 1.08012 | 36054 ft | 468 kts | 351° |
| 2026-05-07 08:08 | 42.07486 | 1.07320 | 36048 ft | 467 kts | 351° |
| 2026-05-07 08:08 | 42.13969 | 1.06629 | 36040 ft | 467 kts | 351° |
| 2026-05-07 08:09 | 42.20448 | 1.05927 | 36041 ft | 467 kts | 351° |
| 2026-05-07 08:09 | 42.26921 | 1.05225 | 36037 ft | 466 kts | 351° |
| 2026-05-07 08:10 | 42.33381 | 1.04529 | 36037 ft | 466 kts | 351° |
| 2026-05-07 08:10 | 42.39800 | 1.03840 | 36033 ft | 466 kts | 351° |
| 2026-05-07 08:11 | 42.46257 | 1.03140 | 36039 ft | 465 kts | 351° |
| 2026-05-07 08:11 | 42.52707 | 1.02439 | 36043 ft | 465 kts | 351° |
| 2026-05-07 08:12 | 42.59149 | 1.01726 | 36038 ft | 464 kts | 351° |
| 2026-05-07 08:12 | 42.65588 | 1.01021 | 36047 ft | 464 kts | 351° |
| 2026-05-07 08:13 | 42.72021 | 1.00316 | 36044 ft | 464 kts | 351° |
| 2026-05-07 08:13 | 42.78414 | 0.99386 | 36038 ft | 458 kts | 343° |
| 2026-05-07 08:14 | 42.84578 | 0.97288 | 36034 ft | 456 kts | 341° |
| 2026-05-07 08:14 | 42.90741 | 0.95164 | 36038 ft | 457 kts | 341° |
| 2026-05-07 08:15 | 42.96911 | 0.93038 | 36036 ft | 457 kts | 341° |
| 2026-05-07 08:15 | 43.03079 | 0.90906 | 36057 ft | 457 kts | 341° |
| 2026-05-07 08:16 | 43.09200 | 0.88780 | 36047 ft | 456 kts | 341° |
| 2026-05-07 08:16 | 43.15354 | 0.86637 | 36045 ft | 456 kts | 341° |
| 2026-05-07 08:17 | 43.21505 | 0.84495 | 36051 ft | 456 kts | 341° |
| 2026-05-07 08:17 | 43.27644 | 0.82351 | 36059 ft | 456 kts | 341° |
| 2026-05-07 08:18 | 43.33795 | 0.80204 | 36058 ft | 455 kts | 341° |
| 2026-05-07 08:18 | 43.39932 | 0.78058 | 36059 ft | 455 kts | 341° |
| 2026-05-07 08:19 | 43.46042 | 0.75827 | 36073 ft | 452 kts | 336° |
| 2026-05-07 08:19 | 43.51814 | 0.72519 | 36064 ft | 449 kts | 332° |
| 2026-05-07 08:20 | 43.57559 | 0.69138 | 36057 ft | 449 kts | 332° |
| 2026-05-07 08:20 | 43.63268 | 0.65781 | 36067 ft | 449 kts | 332° |
| 2026-05-07 08:21 | 43.69047 | 0.62376 | 36061 ft | 449 kts | 332° |
| 2026-05-07 08:21 | 43.74784 | 0.58973 | 36052 ft | 449 kts | 332° |
| 2026-05-07 08:22 | 43.80481 | 0.55586 | 36045 ft | 448 kts | 332° |
| 2026-05-07 08:22 | 43.86218 | 0.52185 | 36056 ft | 448 kts | 332° |
| 2026-05-07 08:23 | 43.91951 | 0.48771 | 36052 ft | 448 kts | 332° |
| 2026-05-07 08:23 | 43.97715 | 0.45324 | 36049 ft | 448 kts | 332° |
| 2026-05-07 08:24 | 44.03394 | 0.41919 | 36057 ft | 447 kts | 332° |
| 2026-05-07 08:24 | 44.09110 | 0.38493 | 36051 ft | 447 kts | 332° |
| 2026-05-07 08:25 | 44.14825 | 0.35058 | 36062 ft | 447 kts | 332° |
| 2026-05-07 08:25 | 44.20542 | 0.31616 | 36052 ft | 447 kts | 332° |
| 2026-05-07 08:26 | 44.29112 | 0.26436 | 36044 ft | 448 kts | 332° |
| 2026-05-07 08:26 | 44.34825 | 0.22969 | 36045 ft | 448 kts | 332° |
| 2026-05-07 08:27 | 44.40540 | 0.19508 | 36045 ft | 448 kts | 332° |
| 2026-05-07 08:27 | 44.46258 | 0.16038 | 36054 ft | 448 kts | 332° |
| 2026-05-07 08:28 | 44.51971 | 0.12564 | 36053 ft | 448 kts | 332° |
| 2026-05-07 08:28 | 44.57685 | 0.09079 | 36050 ft | 448 kts | 332° |
| 2026-05-07 08:29 | 44.63390 | 0.05581 | 36057 ft | 447 kts | 332° |
| 2026-05-07 08:29 | 44.69053 | 0.02097 | 36052 ft | 447 kts | 332° |
| 2026-05-07 08:30 | 44.74759 | -0.01406 | 36055 ft | 448 kts | 332° |
| 2026-05-07 08:30 | 44.80471 | -0.04917 | 36048 ft | 448 kts | 332° |
| 2026-05-07 08:31 | 44.86180 | -0.08440 | 36045 ft | 448 kts | 332° |
| 2026-05-07 08:31 | 44.91894 | -0.11976 | 36044 ft | 448 kts | 332° |
| 2026-05-07 08:32 | 44.97608 | -0.15524 | 36044 ft | 449 kts | 332° |
| 2026-05-07 08:32 | 45.03321 | -0.19076 | 36054 ft | 449 kts | 332° |
| 2026-05-07 08:33 | 45.09035 | -0.22634 | 36048 ft | 449 kts | 332° |
| 2026-05-07 08:33 | 45.14748 | -0.26192 | 36046 ft | 449 kts | 332° |
| 2026-05-07 08:34 | 45.20454 | -0.29764 | 36059 ft | 449 kts | 333° |
| 2026-05-07 08:34 | 45.26170 | -0.33343 | 36052 ft | 448 kts | 333° |
| 2026-05-07 08:35 | 45.31873 | -0.36926 | 36048 ft | 448 kts | 333° |
| 2026-05-07 08:35 | 45.37575 | -0.40511 | 36044 ft | 448 kts | 333° |
| 2026-05-07 08:36 | 45.43274 | -0.44108 | 36052 ft | 448 kts | 333° |
| 2026-05-07 08:36 | 45.48935 | -0.47693 | 36049 ft | 448 kts | 333° |
| 2026-05-07 08:37 | 45.54624 | -0.51311 | 36048 ft | 448 kts | 333° |
| 2026-05-07 08:37 | 45.60319 | -0.54928 | 36054 ft | 448 kts | 333° |
| 2026-05-07 08:38 | 45.66007 | -0.58543 | 36050 ft | 448 kts | 333° |
| 2026-05-07 08:38 | 45.71698 | -0.62176 | 36048 ft | 448 kts | 333° |
| 2026-05-07 08:39 | 45.77390 | -0.65810 | 36053 ft | 448 kts | 333° |
| 2026-05-07 08:39 | 45.83078 | -0.69455 | 36051 ft | 448 kts | 333° |
| 2026-05-07 08:40 | 45.88767 | -0.73104 | 36048 ft | 448 kts | 333° |
| 2026-05-07 08:40 | 45.94452 | -0.76764 | 36046 ft | 448 kts | 333° |
| 2026-05-07 08:41 | 46.00137 | -0.80431 | 36055 ft | 448 kts | 333° |
| 2026-05-07 08:41 | 46.05826 | -0.84103 | 36051 ft | 448 kts | 333° |
| 2026-05-07 08:42 | 46.11510 | -0.87798 | 36046 ft | 448 kts | 333° |
| 2026-05-07 08:42 | 46.16229 | -0.90874 | 36045 ft | 448 kts | 333° |
| 2026-05-07 08:43 | 46.21906 | -0.94604 | 36050 ft | 448 kts | 332° |
| 2026-05-07 08:43 | 46.27432 | -0.98736 | 36047 ft | 447 kts | 328° |
| 2026-05-07 08:44 | 46.32844 | -1.03149 | 36041 ft | 446 kts | 328° |
| 2026-05-07 08:44 | 46.38267 | -1.07543 | 36049 ft | 447 kts | 328° |
| 2026-05-07 08:45 | 46.43727 | -1.11861 | 36048 ft | 447 kts | 329° |
| 2026-05-07 08:45 | 46.49196 | -1.16161 | 36047 ft | 447 kts | 329° |
| 2026-05-07 08:46 | 46.54657 | -1.20482 | 36046 ft | 447 kts | 329° |
| 2026-05-07 08:46 | 46.60076 | -1.24797 | 36056 ft | 447 kts | 329° |
| 2026-05-07 08:47 | 46.65530 | -1.29154 | 36046 ft | 447 kts | 329° |
| 2026-05-07 08:47 | 46.70988 | -1.33519 | 36046 ft | 447 kts | 329° |
| 2026-05-07 08:48 | 46.76446 | -1.37878 | 36043 ft | 448 kts | 329° |
| 2026-05-07 08:48 | 46.81905 | -1.42257 | 36044 ft | 448 kts | 329° |
| 2026-05-07 08:49 | 46.87358 | -1.46646 | 36046 ft | 448 kts | 329° |
| 2026-05-07 08:49 | 46.92808 | -1.51056 | 36043 ft | 448 kts | 329° |
| 2026-05-07 08:50 | 46.98258 | -1.55464 | 36044 ft | 448 kts | 329° |
| 2026-05-07 08:50 | 47.03706 | -1.59878 | 36043 ft | 448 kts | 329° |
| 2026-05-07 08:51 | 47.09152 | -1.64305 | 36045 ft | 448 kts | 329° |
| 2026-05-07 08:51 | 47.14604 | -1.68741 | 36047 ft | 448 kts | 329° |
| 2026-05-07 08:52 | 47.20046 | -1.73190 | 36051 ft | 448 kts | 329° |
| 2026-05-07 08:52 | 47.25490 | -1.77645 | 36048 ft | 448 kts | 329° |
| 2026-05-07 08:53 | 47.30933 | -1.82111 | 36047 ft | 448 kts | 329° |
| 2026-05-07 08:53 | 47.36374 | -1.86577 | 36046 ft | 448 kts | 329° |
| 2026-05-07 08:54 | 47.41814 | -1.91053 | 36049 ft | 448 kts | 329° |
| 2026-05-07 08:54 | 47.47247 | -1.95542 | 36048 ft | 448 kts | 329° |
| 2026-05-07 08:55 | 47.52681 | -2.00048 | 36046 ft | 448 kts | 329° |
| 2026-05-07 08:55 | 47.58113 | -2.04549 | 36058 ft | 448 kts | 329° |
| 2026-05-07 08:56 | 47.63546 | -2.09073 | 36054 ft | 448 kts | 329° |
| 2026-05-07 08:56 | 47.68930 | -2.13581 | 36042 ft | 447 kts | 329° |
| 2026-05-07 08:57 | 47.74355 | -2.18116 | 36050 ft | 447 kts | 329° |
| 2026-05-07 08:57 | 47.79778 | -2.22660 | 36055 ft | 447 kts | 329° |
| 2026-05-07 08:58 | 47.85200 | -2.27211 | 36046 ft | 447 kts | 329° |
| 2026-05-07 08:58 | 47.90620 | -2.31764 | 36051 ft | 447 kts | 329° |
| 2026-05-07 08:59 | 47.96039 | -2.36333 | 36047 ft | 447 kts | 328° |
| 2026-05-07 08:59 | 48.01443 | -2.40927 | 36054 ft | 447 kts | 328° |
| 2026-05-07 09:00 | 48.06850 | -2.45519 | 36061 ft | 447 kts | 328° |
| 2026-05-07 09:00 | 48.12258 | -2.50115 | 36054 ft | 447 kts | 328° |
| 2026-05-07 09:01 | 48.17661 | -2.54723 | 36059 ft | 447 kts | 328° |
| 2026-05-07 09:01 | 48.23059 | -2.59334 | 36064 ft | 447 kts | 328° |
| 2026-05-07 09:02 | 48.28463 | -2.63957 | 36064 ft | 447 kts | 328° |
| 2026-05-07 09:02 | 48.33859 | -2.68584 | 36057 ft | 447 kts | 328° |
| 2026-05-07 09:03 | 48.39247 | -2.73226 | 36059 ft | 447 kts | 328° |
| 2026-05-07 09:03 | 48.44642 | -2.77888 | 36060 ft | 447 kts | 328° |
| 2026-05-07 09:04 | 48.50030 | -2.82557 | 36052 ft | 446 kts | 328° |
| 2026-05-07 09:04 | 48.55381 | -2.87187 | 36048 ft | 446 kts | 328° |
| 2026-05-07 09:05 | 48.60763 | -2.91854 | 36045 ft | 446 kts | 328° |
| 2026-05-07 09:05 | 48.66144 | -2.96539 | 36051 ft | 447 kts | 328° |
| 2026-05-07 09:06 | 48.71518 | -3.01251 | 36049 ft | 446 kts | 328° |
| 2026-05-07 09:06 | 48.76883 | -3.05954 | 36055 ft | 446 kts | 328° |
| 2026-05-07 09:07 | 48.82255 | -3.10668 | 36050 ft | 446 kts | 328° |
| 2026-05-07 09:07 | 48.87626 | -3.15396 | 36046 ft | 446 kts | 328° |
| 2026-05-07 09:08 | 48.92996 | -3.20133 | 36046 ft | 446 kts | 328° |
| 2026-05-07 09:08 | 48.98367 | -3.24880 | 36045 ft | 446 kts | 328° |
| 2026-05-07 09:09 | 49.03732 | -3.29643 | 36055 ft | 446 kts | 328° |
| 2026-05-07 09:09 | 49.09090 | -3.34416 | 36054 ft | 446 kts | 328° |
| 2026-05-07 09:10 | 49.14448 | -3.39199 | 36052 ft | 446 kts | 328° |
| 2026-05-07 09:10 | 49.19804 | -3.43985 | 36052 ft | 446 kts | 328° |
| 2026-05-07 09:11 | 49.25157 | -3.48780 | 36049 ft | 446 kts | 328° |
| 2026-05-07 09:11 | 49.30506 | -3.53587 | 36063 ft | 445 kts | 328° |
| 2026-05-07 09:12 | 49.36201 | -3.57368 | 36060 ft | 447 kts | 338° |
| 2026-05-07 09:12 | 49.42042 | -3.60691 | 36057 ft | 448 kts | 338° |
| 2026-05-07 09:13 | 49.47876 | -3.64030 | 36063 ft | 448 kts | 338° |
| 2026-05-07 09:13 | 49.53716 | -3.67379 | 36057 ft | 448 kts | 338° |
| 2026-05-07 09:14 | 49.59520 | -3.70712 | 36061 ft | 448 kts | 338° |
| 2026-05-07 09:14 | 49.65359 | -3.74069 | 36053 ft | 448 kts | 338° |
| 2026-05-07 09:15 | 49.71459 | -3.76013 | 36064 ft | 451 kts | 356° |
| 2026-05-07 09:15 | 49.77727 | -3.75485 | 36060 ft | 452 kts | 3° |
| 2026-05-07 09:16 | 49.84002 | -3.74739 | 36058 ft | 452 kts | 3° |
| 2026-05-07 09:16 | 49.90289 | -3.74003 | 36056 ft | 452 kts | 3° |
| 2026-05-07 09:17 | 49.96564 | -3.73263 | 36062 ft | 453 kts | 3° |
| 2026-05-07 09:17 | 50.02845 | -3.72511 | 36070 ft | 453 kts | 3° |
| 2026-05-07 09:18 | 50.09124 | -3.71761 | 36062 ft | 453 kts | 3° |
| 2026-05-07 09:18 | 50.15403 | -3.71010 | 36068 ft | 453 kts | 3° |
| 2026-05-07 09:19 | 50.21687 | -3.70256 | 36066 ft | 453 kts | 3° |
| 2026-05-07 09:19 | 50.27968 | -3.69504 | 36074 ft | 453 kts | 3° |
| 2026-05-07 09:20 | 50.34245 | -3.68746 | 36063 ft | 453 kts | 3° |
| 2026-05-07 09:20 | 50.40521 | -3.68562 | 36069 ft | 450 kts | 352° |
| 2026-05-07 09:21 | 50.46525 | -3.71108 | 36063 ft | 447 kts | 336° |
| 2026-05-07 09:21 | 50.52279 | -3.74689 | 36056 ft | 448 kts | 337° |
| 2026-05-07 09:22 | 50.58081 | -3.78283 | 36057 ft | 448 kts | 337° |
| 2026-05-07 09:22 | 50.63887 | -3.81883 | 36058 ft | 449 kts | 336° |
| 2026-05-07 09:23 | 50.69700 | -3.85501 | 36055 ft | 449 kts | 336° |
| 2026-05-07 09:23 | 50.75513 | -3.89135 | 36054 ft | 449 kts | 338° |
| 2026-05-07 09:24 | 50.81326 | -3.92786 | 36052 ft | 450 kts | 338° |
| 2026-05-07 09:24 | 50.87142 | -3.96462 | 36043 ft | 451 kts | 337° |
| 2026-05-07 09:25 | 50.92976 | -4.00144 | 36045 ft | 451 kts | 338° |
| 2026-05-07 09:25 | 50.98815 | -4.03829 | 36043 ft | 452 kts | 337° |
| 2026-05-07 09:26 | 51.04658 | -4.07520 | 36050 ft | 452 kts | 337° |
| 2026-05-07 09:26 | 51.10500 | -4.11232 | 36049 ft | 452 kts | 338° |
| 2026-05-07 09:27 | 51.16345 | -4.14961 | 36054 ft | 453 kts | 338° |
| 2026-05-07 09:28 | 51.25112 | -4.20572 | 36051 ft | 452 kts | 337° |
| 2026-05-07 09:28 | 51.30957 | -4.24316 | 36049 ft | 453 kts | 338° |
| 2026-05-07 09:29 | 51.36811 | -4.28081 | 36048 ft | 453 kts | 338° |
| 2026-05-07 09:29 | 51.42617 | -4.31848 | 36048 ft | 454 kts | 337° |
| 2026-05-07 09:30 | 51.48412 | -4.36050 | 36045 ft | 454 kts | 334° |
| 2026-05-07 09:30 | 51.54088 | -4.40528 | 36038 ft | 455 kts | 334° |
| 2026-05-07 09:31 | 51.59744 | -4.44972 | 36040 ft | 456 kts | 334° |
| 2026-05-07 09:31 | 51.65473 | -4.49376 | 36036 ft | 457 kts | 335° |
| 2026-05-07 09:32 | 51.71217 | -4.53768 | 36042 ft | 457 kts | 335° |
| 2026-05-07 09:32 | 51.75928 | -4.57753 | 36036 ft | 458 kts | 326° |
| 2026-05-07 09:33 | 51.80611 | -4.64659 | 36038 ft | 458 kts | 309° |
| 2026-05-07 09:33 | 51.84656 | -4.72616 | 36037 ft | 458 kts | 309° |
| 2026-05-07 09:34 | 51.88670 | -4.80516 | 36041 ft | 458 kts | 309° |
| 2026-05-07 09:34 | 51.92706 | -4.88487 | 36033 ft | 458 kts | 309° |
| 2026-05-07 09:35 | 51.96748 | -4.96481 | 36040 ft | 458 kts | 309° |
| 2026-05-07 09:35 | 52.01021 | -5.04141 | 36032 ft | 458 kts | 320° |
| 2026-05-07 09:36 | 52.06390 | -5.09642 | 36032 ft | 457 kts | 334° |
| 2026-05-07 09:36 | 52.12086 | -5.14236 | 36029 ft | 458 kts | 334° |
| 2026-05-07 09:37 | 52.17783 | -5.18905 | 36029 ft | 458 kts | 334° |
| 2026-05-07 09:37 | 52.23477 | -5.23582 | 36033 ft | 458 kts | 334° |
| 2026-05-07 09:38 | 52.29172 | -5.28256 | 36028 ft | 458 kts | 334° |
| 2026-05-07 09:38 | 52.34868 | -5.32944 | 36029 ft | 458 kts | 334° |
| 2026-05-07 09:39 | 52.40563 | -5.37642 | 36029 ft | 458 kts | 334° |
| 2026-05-07 09:39 | 52.46254 | -5.42358 | 36028 ft | 458 kts | 333° |
| 2026-05-07 09:40 | 52.51945 | -5.47085 | 36026 ft | 458 kts | 333° |
| 2026-05-07 09:40 | 52.57823 | -5.51062 | 36021 ft | 457 kts | 346° |
| 2026-05-07 09:41 | 52.63965 | -5.53759 | 36023 ft | 457 kts | 345° |
| 2026-05-07 09:41 | 52.70114 | -5.56470 | 36018 ft | 457 kts | 345° |
| 2026-05-07 09:42 | 52.76259 | -5.59209 | 36015 ft | 458 kts | 345° |
| 2026-05-07 09:42 | 52.82406 | -5.61952 | 36016 ft | 458 kts | 345° |
| 2026-05-07 09:43 | 52.88508 | -5.64679 | 36017 ft | 458 kts | 345° |
| 2026-05-07 09:43 | 52.94660 | -5.67433 | 36011 ft | 458 kts | 345° |
| 2026-05-07 09:44 | 53.00811 | -5.70200 | 36006 ft | 458 kts | 345° |
| 2026-05-07 09:44 | 53.06965 | -5.72976 | 36000 ft | 458 kts | 345° |
| 2026-05-07 09:45 | 53.13117 | -5.75744 | 36002 ft | 458 kts | 344° |
| 2026-05-07 09:45 | 53.19268 | -5.78536 | 36002 ft | 458 kts | 344° |
| 2026-05-07 09:46 | 53.25416 | -5.81348 | 35995 ft | 458 kts | 344° |
| 2026-05-07 09:46 | 53.31572 | -5.84163 | 35993 ft | 458 kts | 344° |
| 2026-05-07 09:47 | 53.37725 | -5.86974 | 35993 ft | 459 kts | 344° |
| 2026-05-07 09:47 | 53.43882 | -5.89793 | 35999 ft | 459 kts | 344° |
| 2026-05-07 09:48 | 53.50037 | -5.92626 | 35996 ft | 459 kts | 344° |
| 2026-05-07 09:48 | 53.56189 | -5.95466 | 35995 ft | 459 kts | 344° |
| 2026-05-07 09:49 | 53.62336 | -5.98320 | 35998 ft | 459 kts | 344° |
| 2026-05-07 09:49 | 53.68496 | -6.01179 | 35995 ft | 459 kts | 344° |
| 2026-05-07 09:50 | 53.74654 | -6.04052 | 35996 ft | 459 kts | 344° |
| 2026-05-07 09:50 | 53.80805 | -6.06928 | 36000 ft | 458 kts | 344° |
| 2026-05-07 09:51 | 53.86964 | -6.09603 | 35572 ft | 459 kts | 350° |
| 2026-05-07 09:51 | 53.90184 | -6.10067 | 34447 ft | 470 kts | 1° |
| 2026-05-07 09:51 | 53.93456 | -6.09585 | 33402 ft | 475 kts | 11° |
| 2026-05-07 09:51 | 53.96711 | -6.08526 | 32493 ft | 476 kts | 11° |
| 2026-05-07 09:52 | 53.99946 | -6.07468 | 31352 ft | 470 kts | 13° |
| 2026-05-07 09:52 | 54.03050 | -6.05863 | 30222 ft | 465 kts | 22° |
| 2026-05-07 09:52 | 54.05899 | -6.03467 | 29563 ft | 447 kts | 32° |
| 2026-05-07 09:52 | 54.08503 | -6.00773 | 29064 ft | 429 kts | 32° |
| 2026-05-07 09:53 | 54.11026 | -5.98164 | 28552 ft | 422 kts | 31° |
| 2026-05-07 09:53 | 54.13521 | -5.95579 | 28037 ft | 419 kts | 31° |
| 2026-05-07 09:53 | 54.16007 | -5.92996 | 27541 ft | 417 kts | 32° |
| 2026-05-07 09:53 | 54.18486 | -5.90413 | 27041 ft | 416 kts | 32° |
| 2026-05-07 09:54 | 54.20946 | -5.87841 | 26556 ft | 414 kts | 32° |
| 2026-05-07 09:54 | 54.23396 | -5.85273 | 26077 ft | 412 kts | 32° |
| 2026-05-07 09:54 | 54.25831 | -5.82718 | 25602 ft | 411 kts | 32° |
| 2026-05-07 09:54 | 54.28269 | -5.80159 | 25143 ft | 410 kts | 32° |
| 2026-05-07 09:55 | 54.30697 | -5.77604 | 24691 ft | 409 kts | 32° |
| 2026-05-07 09:55 | 54.33120 | -5.75051 | 24233 ft | 408 kts | 32° |
| 2026-05-07 09:55 | 54.35539 | -5.72500 | 23794 ft | 408 kts | 32° |
| 2026-05-07 09:55 | 54.37953 | -5.69948 | 23311 ft | 408 kts | 32° |
| 2026-05-07 09:56 | 54.40329 | -5.67432 | 22840 ft | 405 kts | 32° |
| 2026-05-07 09:56 | 54.42720 | -5.64900 | 22405 ft | 402 kts | 32° |
| 2026-05-07 09:56 | 54.45094 | -5.62384 | 21940 ft | 400 kts | 32° |
| 2026-05-07 09:56 | 54.47407 | -5.59927 | 21488 ft | 397 kts | 32° |
| 2026-05-07 09:57 | 54.49751 | -5.57433 | 21020 ft | 395 kts | 32° |
| 2026-05-07 09:57 | 54.52080 | -5.54954 | 20545 ft | 393 kts | 31° |
| 2026-05-07 09:57 | 54.54397 | -5.52483 | 20064 ft | 391 kts | 31° |
| 2026-05-07 09:57 | 54.56703 | -5.50022 | 19566 ft | 389 kts | 31° |
| 2026-05-07 09:58 | 54.59000 | -5.47569 | 19087 ft | 387 kts | 31° |
| 2026-05-07 09:58 | 54.61281 | -5.45126 | 18591 ft | 386 kts | 31° |
| 2026-05-07 09:58 | 54.63556 | -5.42681 | 18084 ft | 384 kts | 31° |
| 2026-05-07 09:58 | 54.65822 | -5.40245 | 17558 ft | 382 kts | 31° |
| 2026-05-07 09:59 | 54.68063 | -5.37834 | 17062 ft | 378 kts | 31° |
| 2026-05-07 09:59 | 54.70287 | -5.35440 | 16584 ft | 376 kts | 31° |
| 2026-05-07 09:59 | 54.72496 | -5.33060 | 16096 ft | 373 kts | 31° |
| 2026-05-07 09:59 | 54.74692 | -5.30689 | 15611 ft | 370 kts | 31° |
| 2026-05-07 10:00 | 54.76873 | -5.28329 | 15131 ft | 368 kts | 31° |
| 2026-05-07 10:00 | 54.79037 | -5.25981 | 14652 ft | 366 kts | 31° |
| 2026-05-07 10:00 | 54.81188 | -5.23649 | 14178 ft | 365 kts | 31° |
| 2026-05-07 10:00 | 54.83338 | -5.21322 | 13685 ft | 363 kts | 31° |
| 2026-05-07 10:01 | 54.85473 | -5.19010 | 13171 ft | 361 kts | 31° |
| 2026-05-07 10:01 | 54.87593 | -5.16709 | 12694 ft | 358 kts | 31° |
| 2026-05-07 10:01 | 54.89775 | -5.14660 | 12222 ft | 355 kts | 25° |
| 2026-05-07 10:01 | 54.91976 | -5.12771 | 11754 ft | 353 kts | 26° |
| 2026-05-07 10:02 | 54.94168 | -5.10885 | 11278 ft | 350 kts | 26° |
| 2026-05-07 10:02 | 54.96345 | -5.09003 | 10822 ft | 348 kts | 26° |
| 2026-05-07 10:02 | 54.98510 | -5.07125 | 10369 ft | 346 kts | 26° |
| 2026-05-07 10:02 | 55.00636 | -5.05276 | 10168 ft | 336 kts | 26° |
| 2026-05-07 10:03 | 55.02662 | -5.03512 | 10045 ft | 325 kts | 26° |
| 2026-05-07 10:03 | 55.04684 | -5.01754 | 9919 ft | 315 kts | 26° |
| 2026-05-07 10:03 | 55.06623 | -5.00068 | 9664 ft | 309 kts | 26° |
| 2026-05-07 10:03 | 55.08523 | -4.98413 | 9219 ft | 308 kts | 26° |
| 2026-05-07 10:04 | 55.10418 | -4.96759 | 8695 ft | 302 kts | 27° |
| 2026-05-07 10:04 | 55.12284 | -4.95127 | 8436 ft | 299 kts | 26° |
| 2026-05-07 10:04 | 55.14151 | -4.93488 | 8287 ft | 302 kts | 26° |
| 2026-05-07 10:04 | 55.16030 | -4.91839 | 8164 ft | 300 kts | 26° |
| 2026-05-07 10:05 | 55.17898 | -4.90201 | 8032 ft | 302 kts | 26° |
| 2026-05-07 10:05 | 55.19863 | -4.88982 | 7836 ft | 299 kts | 8° |
| 2026-05-07 10:05 | 55.21922 | -4.88473 | 7512 ft | 299 kts | 4° |
| 2026-05-07 10:05 | 55.23994 | -4.88052 | 7126 ft | 300 kts | 4° |
| 2026-05-07 10:06 | 55.26068 | -4.87638 | 6746 ft | 300 kts | 4° |
| 2026-05-07 10:06 | 55.28142 | -4.87226 | 6371 ft | 301 kts | 4° |
| 2026-05-07 10:06 | 55.30220 | -4.86807 | 6008 ft | 300 kts | 4° |
| 2026-05-07 10:06 | 55.32248 | -4.86399 | 5985 ft | 286 kts | 4° |
| 2026-05-07 10:07 | 55.34182 | -4.86010 | 5991 ft | 275 kts | 4° |
| 2026-05-07 10:07 | 55.36077 | -4.85620 | 5879 ft | 276 kts | 4° |
| 2026-05-07 10:07 | 55.37993 | -4.85225 | 5483 ft | 277 kts | 4° |
| 2026-05-07 10:07 | 55.39891 | -4.84984 | 5162 ft | 269 kts | 350° |
| 2026-05-07 10:08 | 55.41694 | -4.85635 | 4910 ft | 263 kts | 340° |
| 2026-05-07 10:08 | 55.43445 | -4.86499 | 4669 ft | 261 kts | 339° |
| 2026-05-07 10:08 | 55.45188 | -4.87383 | 4419 ft | 260 kts | 339° |
| 2026-05-07 10:08 | 55.46925 | -4.88270 | 4297 ft | 260 kts | 339° |
| 2026-05-07 10:09 | 55.48662 | -4.89165 | 4143 ft | 260 kts | 339° |
| 2026-05-07 10:09 | 55.50395 | -4.90068 | 4031 ft | 260 kts | 339° |
| 2026-05-07 10:09 | 55.52124 | -4.90971 | 3982 ft | 259 kts | 339° |
| 2026-05-07 10:09 | 55.53902 | -4.91413 | 3790 ft | 260 kts | 5° |
| 2026-05-07 10:10 | 55.55611 | -4.90542 | 3656 ft | 253 kts | 21° |
| 2026-05-07 10:10 | 55.57220 | -4.89324 | 3393 ft | 250 kts | 27° |
| 2026-05-07 10:10 | 55.58504 | -4.87352 | 3138 ft | 242 kts | 63° |
| 2026-05-07 10:10 | 55.58992 | -4.84680 | 3018 ft | 221 kts | 95° |
| 2026-05-07 10:11 | 55.58722 | -4.82160 | 2814 ft | 201 kts | 124° |
| 2026-05-07 10:11 | 55.58030 | -4.80072 | 2579 ft | 195 kts | 129° |
| 2026-05-07 10:11 | 55.57335 | -4.78055 | 2319 ft | 194 kts | 129° |
| 2026-05-07 10:11 | 55.56644 | -4.76043 | 2078 ft | 189 kts | 128° |
| 2026-05-07 10:12 | 55.55968 | -4.74072 | 1790 ft | 185 kts | 129° |
| 2026-05-07 10:12 | 55.55322 | -4.72186 | 1534 ft | 172 kts | 129° |
| 2026-05-07 10:12 | 55.54739 | -4.70479 | 1312 ft | 153 kts | 129° |
| 2026-05-07 10:12 | 55.54219 | -4.68967 | 1122 ft | 138 kts | 129° |
| 2026-05-07 10:13 | 55.53724 | -4.67541 | 934 ft | 134 kts | 131° |
| 2026-05-07 10:13 | 55.53247 | -4.66157 | 732 ft | 131 kts | 130° |
| 2026-05-07 10:13 | 55.52783 | -4.64793 | 586 ft | 128 kts | 128° |
| 2026-05-07 10:13 | 55.52316 | -4.63442 | 391 ft | 130 kts | 127° |
| 2026-05-07 10:14 | 55.51843 | -4.62054 | 201 ft | 131 kts | 128° |
| 2026-05-07 10:14 | 55.51371 | -4.60705 | 37 ft | 127 kts | 126° |
| 2026-05-07 10:14 | 55.50991 | -4.59616 | 43 ft | 80 kts | 121° |
| 2026-05-07 10:14 | 55.50781 | -4.59023 | 47 ft | 43 kts | 120° |
| 2026-05-07 10:15 | 55.50637 | -4.58591 | 51 ft | 38 kts | 122° |
| 2026-05-07 10:15 | 55.50504 | -4.58213 | 55 ft | 35 kts | 122° |
| 2026-05-07 10:15 | 55.50397 | -4.57912 | 55 ft | 14 kts | 123° |
| 2026-05-07 10:15 | 55.50325 | -4.57933 | 54 ft | 13 kts | 206° |
| 2026-05-07 10:16 | 55.50270 | -4.58022 | 53 ft | 11 kts | 276° |
| 2026-05-07 10:16 | 55.50310 | -4.58154 | 52 ft | 14 kts | 302° |
| 2026-05-07 10:16 | 55.50366 | -4.58312 | 52 ft | 17 kts | 302° |
| 2026-05-07 10:16 | 55.50433 | -4.58503 | 50 ft | 20 kts | 301° |
| 2026-05-07 10:17 | 55.50510 | -4.58731 | 49 ft | 23 kts | 297° |
| 2026-05-07 10:17 | 55.50583 | -4.59009 | 47 ft | 27 kts | 300° |
| 2026-05-07 10:17 | 55.50686 | -4.59306 | 45 ft | 30 kts | 301° |
| 2026-05-07 10:17 | 55.50799 | -4.59638 | 43 ft | 33 kts | 302° |
| 2026-05-07 10:18 | 55.50911 | -4.59959 | 41 ft | 30 kts | 301° |
| 2026-05-07 10:18 | 55.51016 | -4.60262 | 39 ft | 29 kts | 301° |
| 2026-05-07 10:18 | 55.51114 | -4.60547 | 38 ft | 20 kts | 303° |
| 2026-05-07 10:18 | 55.51168 | -4.60698 | 37 ft | 6 kts | 300° |
| 2026-05-07 10:19 | 55.51173 | -4.60717 | 36 ft | 0 kts | 293° |
| 2026-05-07 10:19 | 55.51169 | -4.60726 | 36 ft | 2 kts | 238° |
| 2026-05-07 10:19 | 55.51158 | -4.60736 | 36 ft | 4 kts | 207° |
| 2026-05-07 10:19 | 55.51128 | -4.60760 | 37 ft | 5 kts | 205° |
| 2026-05-07 10:20 | 55.51116 | -4.60808 | 36 ft | 5 kts | 283° |
| 2026-05-07 10:20 | 55.51141 | -4.60883 | 36 ft | 3 kts | 302° |
| 2026-05-07 10:20 | 55.51142 | -4.60886 | 36 ft | 0 kts | 302° |